sensor_id;sensor_type;location;lat;lon;timestamp;P1;durP1;ratioP1;P2;durP2;ratioP2
79454;SDS011;68900;52.134;5.420;2023-04-30T00:01:12;11.77;;;5.68;;
79454;SDS011;68900;52.134;5.420;2023-04-30T00:03:41;11.70;;;5.25;;
79454;SDS011;68900;52.134;5.420;2023-04-30T00:06:13;12.73;;;6.20;;
79454;SDS011;68900;52.134;5.420;2023-04-30T00:08:44;11.57;;;5.07;;
79454;SDS011;68900;52.134;5.420;2023-04-30T00:11:11;14.88;;;5.10;;
79454;SDS011;68900;52.134;5.420;2023-04-30T00:13:45;13.10;;;5.60;;
79454;SDS011;68900;52.134;5.420;2023-04-30T00:16:20;14.73;;;5.53;;
79454;SDS011;68900;52.134;5.420;2023-04-30T00:18:50;12.45;;;5.53;;
79454;SDS011;68900;52.134;5.420;2023-04-30T00:21:20;13.10;;;6.25;;
79454;SDS011;68900;52.134;5.420;2023-04-30T00:23:47;14.88;;;5.85;;
79454;SDS011;68900;52.134;5.420;2023-04-30T00:26:25;10.13;;;5.30;;
79454;SDS011;68900;52.134;5.420;2023-04-30T00:29:15;12.05;;;5.38;;
79454;SDS011;68900;52.134;5.420;2023-04-30T00:32:03;12.50;;;4.97;;
79454;SDS011;68900;52.134;5.420;2023-04-30T00:34:35;10.95;;;5.05;;
79454;SDS011;68900;52.134;5.420;2023-04-30T00:37:09;12.43;;;5.25;;
79454;SDS011;68900;52.134;5.420;2023-04-30T00:40:00;12.07;;;5.30;;
79454;SDS011;68900;52.134;5.420;2023-04-30T00:42:38;14.30;;;5.72;;
79454;SDS011;68900;52.134;5.420;2023-04-30T00:45:27;13.00;;;5.95;;
79454;SDS011;68900;52.134;5.420;2023-04-30T00:47:54;12.10;;;5.25;;
79454;SDS011;68900;52.134;5.420;2023-04-30T00:50:29;11.50;;;5.63;;
79454;SDS011;68900;52.134;5.420;2023-04-30T00:52:59;17.05;;;5.78;;
79454;SDS011;68900;52.134;5.420;2023-04-30T00:55:26;13.45;;;5.55;;
79454;SDS011;68900;52.134;5.420;2023-04-30T00:57:56;11.25;;;5.65;;
79454;SDS011;68900;52.134;5.420;2023-04-30T01:00:26;10.70;;;5.22;;
79454;SDS011;68900;52.134;5.420;2023-04-30T01:06:26;9.98;;;4.95;;
79454;SDS011;68900;52.134;5.420;2023-04-30T01:08:53;10.80;;;5.55;;
79454;SDS011;68900;52.134;5.420;2023-04-30T01:11:30;10.45;;;4.95;;
79454;SDS011;68900;52.134;5.420;2023-04-30T01:14:27;13.02;;;5.03;;
79454;SDS011;68900;52.134;5.420;2023-04-30T01:17:04;11.77;;;5.55;;
79454;SDS011;68900;52.134;5.420;2023-04-30T01:19:45;12.85;;;5.13;;
79454;SDS011;68900;52.134;5.420;2023-04-30T01:30:30;14.07;;;5.50;;
79454;SDS011;68900;52.134;5.420;2023-04-30T01:33:02;10.52;;;5.15;;
79454;SDS011;68900;52.134;5.420;2023-04-30T01:35:57;9.50;;;4.88;;
79454;SDS011;68900;52.134;5.420;2023-04-30T01:42:03;13.63;;;5.57;;
79454;SDS011;68900;52.134;5.420;2023-04-30T01:47:21;12.90;;;5.25;;
79454;SDS011;68900;52.134;5.420;2023-04-30T01:50:32;12.10;;;5.45;;
79454;SDS011;68900;52.134;5.420;2023-04-30T01:52:58;12.23;;;4.93;;
79454;SDS011;68900;52.134;5.420;2023-04-30T01:55:42;10.77;;;4.80;;
79454;SDS011;68900;52.134;5.420;2023-04-30T01:58:19;12.23;;;5.45;;
79454;SDS011;68900;52.134;5.420;2023-04-30T02:00:49;9.48;;;4.82;;
79454;SDS011;68900;52.134;5.420;2023-04-30T02:03:17;12.00;;;5.22;;
79454;SDS011;68900;52.134;5.420;2023-04-30T02:05:44;11.77;;;5.22;;
79454;SDS011;68900;52.134;5.420;2023-04-30T02:08:11;10.93;;;5.00;;
79454;SDS011;68900;52.134;5.420;2023-04-30T02:10:39;10.35;;;4.97;;
79454;SDS011;68900;52.134;5.420;2023-04-30T02:13:09;14.00;;;5.00;;
79454;SDS011;68900;52.134;5.420;2023-04-30T02:15:35;13.98;;;5.35;;
79454;SDS011;68900;52.134;5.420;2023-04-30T02:18:02;9.75;;;4.72;;
79454;SDS011;68900;52.134;5.420;2023-04-30T02:20:52;12.63;;;5.30;;
79454;SDS011;68900;52.134;5.420;2023-04-30T02:23:30;12.27;;;5.90;;
79454;SDS011;68900;52.134;5.420;2023-04-30T02:25:57;10.15;;;5.20;;
79454;SDS011;68900;52.134;5.420;2023-04-30T02:28:26;10.65;;;5.10;;
79454;SDS011;68900;52.134;5.420;2023-04-30T02:30:52;12.70;;;5.82;;
79454;SDS011;68900;52.134;5.420;2023-04-30T02:33:19;10.82;;;5.00;;
79454;SDS011;68900;52.134;5.420;2023-04-30T02:35:47;10.65;;;4.88;;
79454;SDS011;68900;52.134;5.420;2023-04-30T02:38:20;12.18;;;5.15;;
79454;SDS011;68900;52.134;5.420;2023-04-30T02:40:47;11.75;;;5.25;;
79454;SDS011;68900;52.134;5.420;2023-04-30T02:43:18;10.18;;;5.13;;
79454;SDS011;68900;52.134;5.420;2023-04-30T02:45:52;12.85;;;4.75;;
79454;SDS011;68900;52.134;5.420;2023-04-30T02:48:19;11.65;;;5.40;;
79454;SDS011;68900;52.134;5.420;2023-04-30T02:50:53;12.65;;;5.40;;
79454;SDS011;68900;52.134;5.420;2023-04-30T02:53:23;10.20;;;4.95;;
79454;SDS011;68900;52.134;5.420;2023-04-30T02:55:50;11.57;;;5.50;;
79454;SDS011;68900;52.134;5.420;2023-04-30T03:09:11;12.85;;;5.57;;
79454;SDS011;68900;52.134;5.420;2023-04-30T03:11:38;9.30;;;5.05;;
79454;SDS011;68900;52.134;5.420;2023-04-30T03:14:08;12.35;;;4.70;;
79454;SDS011;68900;52.134;5.420;2023-04-30T03:16:40;10.40;;;5.18;;
79454;SDS011;68900;52.134;5.420;2023-04-30T03:19:07;8.75;;;4.18;;
79454;SDS011;68900;52.134;5.420;2023-04-30T03:21:34;11.10;;;5.05;;
79454;SDS011;68900;52.134;5.420;2023-04-30T03:24:09;15.93;;;4.68;;
79454;SDS011;68900;52.134;5.420;2023-04-30T03:26:39;10.75;;;5.20;;
79454;SDS011;68900;52.134;5.420;2023-04-30T03:29:13;13.82;;;5.10;;
79454;SDS011;68900;52.134;5.420;2023-04-30T03:31:40;10.73;;;5.28;;
79454;SDS011;68900;52.134;5.420;2023-04-30T03:34:31;11.05;;;4.70;;
79454;SDS011;68900;52.134;5.420;2023-04-30T03:37:08;14.68;;;5.13;;
79454;SDS011;68900;52.134;5.420;2023-04-30T03:39:42;8.75;;;3.85;;
79454;SDS011;68900;52.134;5.420;2023-04-30T03:42:09;11.25;;;4.72;;
79454;SDS011;68900;52.134;5.420;2023-04-30T03:44:39;10.10;;;4.75;;
79454;SDS011;68900;52.134;5.420;2023-04-30T03:47:07;9.63;;;4.82;;
79454;SDS011;68900;52.134;5.420;2023-04-30T03:52:03;11.15;;;4.78;;
79454;SDS011;68900;52.134;5.420;2023-04-30T03:57:06;11.45;;;4.13;;
79454;SDS011;68900;52.134;5.420;2023-04-30T03:59:43;10.60;;;4.38;;
79454;SDS011;68900;52.134;5.420;2023-04-30T04:11:25;9.80;;;4.30;;
79454;SDS011;68900;52.134;5.420;2023-04-30T04:13:59;9.27;;;4.32;;
79454;SDS011;68900;52.134;5.420;2023-04-30T04:16:26;10.35;;;4.80;;
79454;SDS011;68900;52.134;5.420;2023-04-30T04:18:57;8.82;;;4.07;;
79454;SDS011;68900;52.134;5.420;2023-04-30T04:21:27;8.68;;;3.63;;
79454;SDS011;68900;52.134;5.420;2023-04-30T04:24:05;9.10;;;3.90;;
79454;SDS011;68900;52.134;5.420;2023-04-30T04:26:53;9.00;;;4.28;;
79454;SDS011;68900;52.134;5.420;2023-04-30T04:29:28;8.68;;;3.85;;
79454;SDS011;68900;52.134;5.420;2023-04-30T04:31:55;8.63;;;4.10;;
79454;SDS011;68900;52.134;5.420;2023-04-30T04:34:23;8.85;;;4.10;;
79454;SDS011;68900;52.134;5.420;2023-04-30T04:36:59;9.82;;;4.30;;
79454;SDS011;68900;52.134;5.420;2023-04-30T04:39:33;8.45;;;3.95;;
79454;SDS011;68900;52.134;5.420;2023-04-30T04:42:24;8.32;;;4.00;;
79454;SDS011;68900;52.134;5.420;2023-04-30T04:44:58;9.75;;;4.30;;
79454;SDS011;68900;52.134;5.420;2023-04-30T04:47:38;9.40;;;4.15;;
79454;SDS011;68900;52.134;5.420;2023-04-30T04:50:05;7.82;;;3.90;;
79454;SDS011;68900;52.134;5.420;2023-04-30T04:56:08;10.05;;;4.50;;
79454;SDS011;68900;52.134;5.420;2023-04-30T04:58:35;9.30;;;4.43;;
79454;SDS011;68900;52.134;5.420;2023-04-30T05:01:22;9.98;;;4.68;;
79454;SDS011;68900;52.134;5.420;2023-04-30T05:03:54;10.77;;;4.85;;
79454;SDS011;68900;52.134;5.420;2023-04-30T05:06:24;12.20;;;4.45;;
79454;SDS011;68900;52.134;5.420;2023-04-30T05:08:58;8.65;;;4.32;;
79454;SDS011;68900;52.134;5.420;2023-04-30T05:11:43;10.35;;;4.60;;
79454;SDS011;68900;52.134;5.420;2023-04-30T05:14:19;9.98;;;4.78;;
79454;SDS011;68900;52.134;5.420;2023-04-30T05:16:50;13.52;;;4.60;;
79454;SDS011;68900;52.134;5.420;2023-04-30T05:19:39;10.00;;;4.22;;
79454;SDS011;68900;52.134;5.420;2023-04-30T05:22:13;11.10;;;5.22;;
79454;SDS011;68900;52.134;5.420;2023-04-30T05:24:45;8.38;;;4.53;;
79454;SDS011;68900;52.134;5.420;2023-04-30T05:27:19;11.27;;;4.13;;
79454;SDS011;68900;52.134;5.420;2023-04-30T05:29:47;11.00;;;4.30;;
79454;SDS011;68900;52.134;5.420;2023-04-30T05:32:22;9.73;;;4.75;;
79454;SDS011;68900;52.134;5.420;2023-04-30T05:34:49;12.45;;;5.38;;
79454;SDS011;68900;52.134;5.420;2023-04-30T05:37:18;11.20;;;4.30;;
79454;SDS011;68900;52.134;5.420;2023-04-30T05:39:48;16.17;;;5.30;;
79454;SDS011;68900;52.134;5.420;2023-04-30T05:42:22;16.67;;;4.68;;
79454;SDS011;68900;52.134;5.420;2023-04-30T05:44:57;11.32;;;4.78;;
79454;SDS011;68900;52.134;5.420;2023-04-30T05:47:33;10.27;;;4.70;;
79454;SDS011;68900;52.134;5.420;2023-04-30T05:50:05;10.43;;;4.72;;
79454;SDS011;68900;52.134;5.420;2023-04-30T05:52:54;11.40;;;4.47;;
79454;SDS011;68900;52.134;5.420;2023-04-30T05:58:02;12.07;;;4.20;;
79454;SDS011;68900;52.134;5.420;2023-04-30T06:00:52;10.55;;;3.63;;
79454;SDS011;68900;52.134;5.420;2023-04-30T06:03:20;10.13;;;4.78;;
79454;SDS011;68900;52.134;5.420;2023-04-30T06:05:48;9.30;;;4.18;;
79454;SDS011;68900;52.134;5.420;2023-04-30T06:08:23;9.85;;;4.70;;
79454;SDS011;68900;52.134;5.420;2023-04-30T06:10:54;10.25;;;4.60;;
79454;SDS011;68900;52.134;5.420;2023-04-30T06:13:31;10.38;;;4.72;;
79454;SDS011;68900;52.134;5.420;2023-04-30T06:15:59;12.38;;;4.78;;
79454;SDS011;68900;52.134;5.420;2023-04-30T06:18:30;11.55;;;5.20;;
79454;SDS011;68900;52.134;5.420;2023-04-30T06:20:57;9.48;;;4.22;;
79454;SDS011;68900;52.134;5.420;2023-04-30T06:23:28;12.98;;;5.57;;
79454;SDS011;68900;52.134;5.420;2023-04-30T06:26:04;15.02;;;4.47;;
79454;SDS011;68900;52.134;5.420;2023-04-30T06:28:33;10.93;;;4.55;;
79454;SDS011;68900;52.134;5.420;2023-04-30T06:31:20;9.18;;;4.35;;
79454;SDS011;68900;52.134;5.420;2023-04-30T06:33:47;10.25;;;4.47;;
79454;SDS011;68900;52.134;5.420;2023-04-30T06:36:17;9.48;;;4.38;;
79454;SDS011;68900;52.134;5.420;2023-04-30T06:38:46;9.10;;;4.55;;
79454;SDS011;68900;52.134;5.420;2023-04-30T06:41:14;13.43;;;4.72;;
79454;SDS011;68900;52.134;5.420;2023-04-30T06:44:05;11.95;;;4.35;;
79454;SDS011;68900;52.134;5.420;2023-04-30T06:46:32;10.70;;;4.93;;
79454;SDS011;68900;52.134;5.420;2023-04-30T06:49:06;10.00;;;4.68;;
79454;SDS011;68900;52.134;5.420;2023-04-30T06:51:37;9.85;;;4.82;;
79454;SDS011;68900;52.134;5.420;2023-04-30T06:54:03;11.60;;;4.25;;
79454;SDS011;68900;52.134;5.420;2023-04-30T06:59:01;9.93;;;4.70;;
79454;SDS011;68900;52.134;5.420;2023-04-30T07:01:28;10.93;;;4.38;;
79454;SDS011;68900;52.134;5.420;2023-04-30T07:08:27;9.35;;;3.95;;
79454;SDS011;68900;52.134;5.420;2023-04-30T07:10:53;8.77;;;3.92;;
79454;SDS011;68900;52.134;5.420;2023-04-30T07:13:20;10.10;;;3.90;;
79454;SDS011;68900;52.134;5.420;2023-04-30T07:16:11;8.40;;;3.95;;
79454;SDS011;68900;52.134;5.420;2023-04-30T07:21:58;8.48;;;3.88;;
79454;SDS011;68900;52.134;5.420;2023-04-30T07:24:24;7.85;;;3.65;;
79454;SDS011;68900;52.134;5.420;2023-04-30T07:26:51;7.88;;;3.22;;
79454;SDS011;68900;52.134;5.420;2023-04-30T07:29:18;9.27;;;3.70;;
79454;SDS011;68900;52.134;5.420;2023-04-30T07:31:46;9.20;;;3.63;;
79454;SDS011;68900;52.134;5.420;2023-04-30T07:34:26;8.75;;;3.97;;
79454;SDS011;68900;52.134;5.420;2023-04-30T07:36:54;9.60;;;3.63;;
79454;SDS011;68900;52.134;5.420;2023-04-30T07:39:30;8.30;;;3.90;;
79454;SDS011;68900;52.134;5.420;2023-04-30T07:42:03;7.10;;;3.50;;
79454;SDS011;68900;52.134;5.420;2023-04-30T07:44:31;7.43;;;3.42;;
79454;SDS011;68900;52.134;5.420;2023-04-30T07:47:29;9.38;;;4.00;;
79454;SDS011;68900;52.134;5.420;2023-04-30T07:50:05;10.52;;;4.05;;
79454;SDS011;68900;52.134;5.420;2023-04-30T07:52:48;9.18;;;3.70;;
79454;SDS011;68900;52.134;5.420;2023-04-30T07:55:16;10.55;;;3.90;;
79454;SDS011;68900;52.134;5.420;2023-04-30T07:57:46;10.80;;;4.60;;
79454;SDS011;68900;52.134;5.420;2023-04-30T08:00:13;7.82;;;4.00;;
79454;SDS011;68900;52.134;5.420;2023-04-30T08:02:48;10.63;;;4.20;;
79454;SDS011;68900;52.134;5.420;2023-04-30T08:05:22;7.45;;;3.65;;
79454;SDS011;68900;52.134;5.420;2023-04-30T08:07:51;8.30;;;3.80;;
79454;SDS011;68900;52.134;5.420;2023-04-30T08:10:20;8.43;;;4.15;;
79454;SDS011;68900;52.134;5.420;2023-04-30T08:12:57;7.78;;;3.63;;
79454;SDS011;68900;52.134;5.420;2023-04-30T08:15:25;10.10;;;4.15;;
79454;SDS011;68900;52.134;5.420;2023-04-30T08:17:55;8.93;;;4.30;;
79454;SDS011;68900;52.134;5.420;2023-04-30T08:23:09;11.93;;;3.95;;
79454;SDS011;68900;52.134;5.420;2023-04-30T08:25:39;9.65;;;3.47;;
79454;SDS011;68900;52.134;5.420;2023-04-30T08:28:08;10.38;;;3.85;;
79454;SDS011;68900;52.134;5.420;2023-04-30T08:30:38;9.95;;;4.00;;
79454;SDS011;68900;52.134;5.420;2023-04-30T08:33:08;8.65;;;3.90;;
79454;SDS011;68900;52.134;5.420;2023-04-30T08:35:53;7.28;;;3.35;;
79454;SDS011;68900;52.134;5.420;2023-04-30T08:38:23;6.63;;;3.63;;
79454;SDS011;68900;52.134;5.420;2023-04-30T08:41:11;7.85;;;3.33;;
79454;SDS011;68900;52.134;5.420;2023-04-30T08:43:42;11.52;;;3.42;;
79454;SDS011;68900;52.134;5.420;2023-04-30T08:46:16;5.55;;;2.67;;
79454;SDS011;68900;52.134;5.420;2023-04-30T08:49:05;6.60;;;3.03;;
79454;SDS011;68900;52.134;5.420;2023-04-30T08:51:56;7.50;;;2.80;;
79454;SDS011;68900;52.134;5.420;2023-04-30T08:54:27;9.07;;;3.75;;
79454;SDS011;68900;52.134;5.420;2023-04-30T08:57:28;8.38;;;3.08;;
79454;SDS011;68900;52.134;5.420;2023-04-30T09:00:12;6.72;;;3.28;;
79454;SDS011;68900;52.134;5.420;2023-04-30T09:02:47;7.22;;;3.00;;
79454;SDS011;68900;52.134;5.420;2023-04-30T09:05:19;9.90;;;2.53;;
79454;SDS011;68900;52.134;5.420;2023-04-30T09:07:47;6.30;;;2.75;;
79454;SDS011;68900;52.134;5.420;2023-04-30T09:10:31;9.25;;;2.90;;
79454;SDS011;68900;52.134;5.420;2023-04-30T09:13:07;5.45;;;2.10;;
79454;SDS011;68900;52.134;5.420;2023-04-30T09:15:44;6.53;;;2.15;;
79454;SDS011;68900;52.134;5.420;2023-04-30T09:18:22;5.55;;;2.20;;
79454;SDS011;68900;52.134;5.420;2023-04-30T09:20:55;4.85;;;2.10;;
79454;SDS011;68900;52.134;5.420;2023-04-30T09:23:31;5.55;;;2.40;;
79454;SDS011;68900;52.134;5.420;2023-04-30T09:26:20;5.72;;;2.35;;
79454;SDS011;68900;52.134;5.420;2023-04-30T09:28:55;5.93;;;2.20;;
79454;SDS011;68900;52.134;5.420;2023-04-30T09:31:30;4.88;;;2.00;;
79454;SDS011;68900;52.134;5.420;2023-04-30T09:34:03;5.82;;;2.03;;
79454;SDS011;68900;52.134;5.420;2023-04-30T09:36:30;6.68;;;2.20;;
79454;SDS011;68900;52.134;5.420;2023-04-30T09:39:08;5.53;;;2.40;;
79454;SDS011;68900;52.134;5.420;2023-04-30T09:42:08;6.13;;;2.50;;
79454;SDS011;68900;52.134;5.420;2023-04-30T09:44:42;6.50;;;2.58;;
79454;SDS011;68900;52.134;5.420;2023-04-30T09:47:30;6.25;;;2.35;;
79454;SDS011;68900;52.134;5.420;2023-04-30T09:56:10;5.80;;;2.17;;
79454;SDS011;68900;52.134;5.420;2023-04-30T09:58:44;6.72;;;2.50;;
79454;SDS011;68900;52.134;5.420;2023-04-30T10:01:16;5.63;;;2.10;;
79454;SDS011;68900;52.134;5.420;2023-04-30T10:03:43;7.55;;;2.10;;
79454;SDS011;68900;52.134;5.420;2023-04-30T10:33:31;4.93;;;2.22;;
79454;SDS011;68900;52.134;5.420;2023-04-30T10:36:17;5.15;;;2.20;;
79454;SDS011;68900;52.134;5.420;2023-04-30T10:38:49;5.20;;;2.10;;
79454;SDS011;68900;52.134;5.420;2023-04-30T10:41:18;5.85;;;1.90;;
79454;SDS011;68900;52.134;5.420;2023-04-30T10:43:46;4.53;;;1.80;;
79454;SDS011;68900;52.134;5.420;2023-04-30T10:46:21;6.72;;;2.10;;
79454;SDS011;68900;52.134;5.420;2023-04-30T10:48:52;5.47;;;2.20;;
79454;SDS011;68900;52.134;5.420;2023-04-30T10:51:20;4.45;;;1.65;;
79454;SDS011;68900;52.134;5.420;2023-04-30T10:53:57;5.22;;;2.13;;
79454;SDS011;68900;52.134;5.420;2023-04-30T11:01:27;4.47;;;2.10;;
79454;SDS011;68900;52.134;5.420;2023-04-30T11:04:10;7.07;;;2.10;;
79454;SDS011;68900;52.134;5.420;2023-04-30T11:09:39;4.50;;;1.95;;
79454;SDS011;68900;52.134;5.420;2023-04-30T11:14:50;6.63;;;2.17;;
79454;SDS011;68900;52.134;5.420;2023-04-30T11:27:06;4.70;;;2.10;;
79454;SDS011;68900;52.134;5.420;2023-04-30T11:29:33;6.13;;;2.00;;
79454;SDS011;68900;52.134;5.420;2023-04-30T11:32:00;4.68;;;1.95;;
79454;SDS011;68900;52.134;5.420;2023-04-30T11:34:29;6.15;;;1.95;;
79454;SDS011;68900;52.134;5.420;2023-04-30T11:37:00;5.80;;;1.85;;
79454;SDS011;68900;52.134;5.420;2023-04-30T11:39:32;4.70;;;1.80;;
79454;SDS011;68900;52.134;5.420;2023-04-30T11:42:02;4.90;;;1.83;;
79454;SDS011;68900;52.134;5.420;2023-04-30T11:44:36;6.10;;;2.00;;
79454;SDS011;68900;52.134;5.420;2023-04-30T11:47:03;4.82;;;2.10;;
79454;SDS011;68900;52.134;5.420;2023-04-30T11:49:34;5.60;;;2.00;;
79454;SDS011;68900;52.134;5.420;2023-04-30T11:52:06;5.78;;;2.03;;
79454;SDS011;68900;52.134;5.420;2023-04-30T11:54:38;4.43;;;2.00;;
79454;SDS011;68900;52.134;5.420;2023-04-30T11:57:10;5.80;;;2.03;;
79454;SDS011;68900;52.134;5.420;2023-04-30T11:59:41;4.95;;;1.98;;
79454;SDS011;68900;52.134;5.420;2023-04-30T12:02:15;4.35;;;1.65;;
79454;SDS011;68900;52.134;5.420;2023-04-30T12:04:45;5.03;;;1.70;;
79454;SDS011;68900;52.134;5.420;2023-04-30T12:07:20;5.35;;;1.60;;
79454;SDS011;68900;52.134;5.420;2023-04-30T12:10:14;4.65;;;2.08;;
79454;SDS011;68900;52.134;5.420;2023-04-30T12:12:45;4.78;;;1.73;;
79454;SDS011;68900;52.134;5.420;2023-04-30T12:15:20;4.70;;;2.05;;
79454;SDS011;68900;52.134;5.420;2023-04-30T14:46:10;2.67;;;0.90;;
79454;SDS011;68900;52.134;5.420;2023-04-30T14:48:37;2.58;;;0.93;;
79454;SDS011;68900;52.134;5.420;2023-04-30T14:51:15;3.80;;;0.82;;
79454;SDS011;68900;52.134;5.420;2023-04-30T14:53:46;2.88;;;0.85;;
79454;SDS011;68900;52.134;5.420;2023-04-30T15:57:07;4.63;;;0.90;;
79454;SDS011;68900;52.134;5.420;2023-04-30T16:04:16;3.00;;;1.00;;
79454;SDS011;68900;52.134;5.420;2023-04-30T16:37:27;2.47;;;0.75;;
79454;SDS011;68900;52.134;5.420;2023-04-30T16:39:54;2.78;;;0.80;;
79454;SDS011;68900;52.134;5.420;2023-04-30T16:42:25;2.30;;;0.77;;
79454;SDS011;68900;52.134;5.420;2023-04-30T16:45:01;6.07;;;1.00;;
79454;SDS011;68900;52.134;5.420;2023-04-30T16:47:36;2.30;;;0.73;;
79454;SDS011;68900;52.134;5.420;2023-04-30T16:50:03;3.63;;;1.08;;
79454;SDS011;68900;52.134;5.420;2023-04-30T16:52:35;3.83;;;0.85;;
79454;SDS011;68900;52.134;5.420;2023-04-30T16:55:08;4.03;;;0.80;;
79454;SDS011;68900;52.134;5.420;2023-04-30T16:57:35;3.95;;;0.90;;
79454;SDS011;68900;52.134;5.420;2023-04-30T17:00:02;2.90;;;0.90;;
79454;SDS011;68900;52.134;5.420;2023-04-30T17:02:29;4.45;;;0.98;;
79454;SDS011;68900;52.134;5.420;2023-04-30T17:04:56;3.25;;;0.90;;
79454;SDS011;68900;52.134;5.420;2023-04-30T17:07:23;2.88;;;0.85;;
79454;SDS011;68900;52.134;5.420;2023-04-30T17:09:49;2.55;;;0.70;;
79454;SDS011;68900;52.134;5.420;2023-04-30T17:12:17;2.35;;;0.73;;
79454;SDS011;68900;52.134;5.420;2023-04-30T17:14:48;3.20;;;1.00;;
79454;SDS011;68900;52.134;5.420;2023-04-30T17:17:20;2.45;;;0.80;;
79454;SDS011;68900;52.134;5.420;2023-04-30T17:19:49;4.38;;;0.80;;
79454;SDS011;68900;52.134;5.420;2023-04-30T17:22:30;3.92;;;0.77;;
79454;SDS011;68900;52.134;5.420;2023-04-30T17:25:04;2.95;;;0.70;;
79454;SDS011;68900;52.134;5.420;2023-04-30T17:27:30;2.67;;;0.60;;
79454;SDS011;68900;52.134;5.420;2023-04-30T17:35:34;6.15;;;0.85;;
79454;SDS011;68900;52.134;5.420;2023-04-30T17:38:01;4.75;;;0.95;;
79454;SDS011;68900;52.134;5.420;2023-04-30T17:40:27;4.30;;;1.10;;
79454;SDS011;68900;52.134;5.420;2023-04-30T17:42:57;3.50;;;0.90;;
79454;SDS011;68900;52.134;5.420;2023-04-30T17:45:24;5.65;;;1.10;;
79454;SDS011;68900;52.134;5.420;2023-04-30T17:47:52;8.20;;;2.20;;
79454;SDS011;68900;52.134;5.420;2023-04-30T17:50:19;17.98;;;3.00;;
79454;SDS011;68900;52.134;5.420;2023-04-30T17:52:49;8.43;;;1.80;;
79454;SDS011;68900;52.134;5.420;2023-04-30T17:55:22;5.57;;;1.80;;
79454;SDS011;68900;52.134;5.420;2023-04-30T17:57:52;5.30;;;1.05;;
79454;SDS011;68900;52.134;5.420;2023-04-30T18:00:18;3.50;;;0.80;;
79454;SDS011;68900;52.134;5.420;2023-04-30T18:02:48;6.50;;;1.00;;
79454;SDS011;68900;52.134;5.420;2023-04-30T18:05:15;3.42;;;1.10;;
79454;SDS011;68900;52.134;5.420;2023-04-30T18:07:47;4.57;;;0.82;;
79454;SDS011;68900;52.134;5.420;2023-04-30T18:10:14;3.42;;;0.90;;
79454;SDS011;68900;52.134;5.420;2023-04-30T18:12:41;2.70;;;1.20;;
79454;SDS011;68900;52.134;5.420;2023-04-30T18:15:12;4.95;;;1.52;;
79454;SDS011;68900;52.134;5.420;2023-04-30T18:24:13;4.45;;;1.23;;
79454;SDS011;68900;52.134;5.420;2023-04-30T18:26:53;3.00;;;1.15;;
79454;SDS011;68900;52.134;5.420;2023-04-30T18:29:20;5.95;;;1.10;;
79454;SDS011;68900;52.134;5.420;2023-04-30T18:31:47;3.33;;;1.23;;
79454;SDS011;68900;52.134;5.420;2023-04-30T18:34:13;4.00;;;1.25;;
79454;SDS011;68900;52.134;5.420;2023-04-30T18:36:40;3.85;;;1.13;;
79454;SDS011;68900;52.134;5.420;2023-04-30T18:39:09;3.67;;;1.30;;
79454;SDS011;68900;52.134;5.420;2023-04-30T18:41:39;3.95;;;1.30;;
79454;SDS011;68900;52.134;5.420;2023-04-30T18:44:05;3.53;;;1.30;;
79454;SDS011;68900;52.134;5.420;2023-04-30T18:46:34;5.40;;;1.30;;
79454;SDS011;68900;52.134;5.420;2023-04-30T18:49:01;3.50;;;1.23;;
79454;SDS011;68900;52.134;5.420;2023-04-30T18:51:29;4.55;;;1.10;;
79454;SDS011;68900;52.134;5.420;2023-04-30T18:53:55;3.08;;;1.13;;
79454;SDS011;68900;52.134;5.420;2023-04-30T18:56:22;6.05;;;1.48;;
79454;SDS011;68900;52.134;5.420;2023-04-30T18:58:49;3.90;;;1.40;;
79454;SDS011;68900;52.134;5.420;2023-04-30T19:01:15;3.55;;;1.20;;
79454;SDS011;68900;52.134;5.420;2023-04-30T19:03:43;4.60;;;1.80;;
79454;SDS011;68900;52.134;5.420;2023-04-30T19:06:09;4.82;;;2.08;;
79454;SDS011;68900;52.134;5.420;2023-04-30T19:08:36;4.78;;;1.90;;
79454;SDS011;68900;52.134;5.420;2023-04-30T19:11:02;3.95;;;1.52;;
79454;SDS011;68900;52.134;5.420;2023-04-30T19:13:29;4.63;;;1.92;;
79454;SDS011;68900;52.134;5.420;2023-04-30T19:15:56;5.00;;;2.03;;
79454;SDS011;68900;52.134;5.420;2023-04-30T19:18:22;5.70;;;2.42;;
79454;SDS011;68900;52.134;5.420;2023-04-30T19:20:54;5.97;;;1.50;;
79454;SDS011;68900;52.134;5.420;2023-04-30T19:23:25;5.25;;;1.70;;
79454;SDS011;68900;52.134;5.420;2023-04-30T19:25:53;5.55;;;1.85;;
79454;SDS011;68900;52.134;5.420;2023-04-30T19:28:19;9.55;;;1.80;;
79454;SDS011;68900;52.134;5.420;2023-04-30T19:30:45;5.10;;;1.65;;
79454;SDS011;68900;52.134;5.420;2023-04-30T19:33:12;3.88;;;1.58;;
79454;SDS011;68900;52.134;5.420;2023-04-30T19:35:38;7.93;;;1.85;;
79454;SDS011;68900;52.134;5.420;2023-04-30T19:38:05;5.97;;;1.80;;
79454;SDS011;68900;52.134;5.420;2023-04-30T19:40:32;7.10;;;1.50;;
79454;SDS011;68900;52.134;5.420;2023-04-30T19:42:58;5.53;;;1.70;;
79454;SDS011;68900;52.134;5.420;2023-04-30T19:45:25;4.80;;;1.70;;
79454;SDS011;68900;52.134;5.420;2023-04-30T19:47:51;5.07;;;1.80;;
79454;SDS011;68900;52.134;5.420;2023-04-30T19:50:18;6.50;;;1.90;;
79454;SDS011;68900;52.134;5.420;2023-04-30T19:52:45;5.30;;;1.55;;
79454;SDS011;68900;52.134;5.420;2023-04-30T19:55:12;5.47;;;1.77;;
79454;SDS011;68900;52.134;5.420;2023-04-30T19:57:41;4.82;;;1.70;;
79454;SDS011;68900;52.134;5.420;2023-04-30T20:00:07;5.13;;;1.92;;
79454;SDS011;68900;52.134;5.420;2023-04-30T20:02:34;5.28;;;2.25;;
79454;SDS011;68900;52.134;5.420;2023-04-30T20:05:01;7.45;;;2.45;;
79454;SDS011;68900;52.134;5.420;2023-04-30T20:07:30;6.28;;;2.08;;
79454;SDS011;68900;52.134;5.420;2023-04-30T20:09:57;5.00;;;2.03;;
79454;SDS011;68900;52.134;5.420;2023-04-30T20:12:26;6.05;;;1.73;;
79454;SDS011;68900;52.134;5.420;2023-04-30T20:14:53;6.25;;;2.10;;
79454;SDS011;68900;52.134;5.420;2023-04-30T20:17:19;5.88;;;1.70;;
79454;SDS011;68900;52.134;5.420;2023-04-30T20:19:46;6.45;;;2.20;;
79454;SDS011;68900;52.134;5.420;2023-04-30T20:22:15;5.47;;;2.15;;
79454;SDS011;68900;52.134;5.420;2023-04-30T20:24:41;6.50;;;2.20;;
79454;SDS011;68900;52.134;5.420;2023-04-30T20:27:10;6.18;;;2.60;;
79454;SDS011;68900;52.134;5.420;2023-04-30T20:29:37;5.65;;;2.42;;
79454;SDS011;68900;52.134;5.420;2023-04-30T20:32:07;4.78;;;2.17;;
79454;SDS011;68900;52.134;5.420;2023-04-30T20:34:34;5.57;;;2.22;;
79454;SDS011;68900;52.134;5.420;2023-04-30T20:37:02;9.13;;;2.53;;
79454;SDS011;68900;52.134;5.420;2023-04-30T20:39:31;5.50;;;2.25;;
79454;SDS011;68900;52.134;5.420;2023-04-30T20:41:57;4.40;;;2.10;;
79454;SDS011;68900;52.134;5.420;2023-04-30T20:44:26;4.20;;;2.20;;
79454;SDS011;68900;52.134;5.420;2023-04-30T20:46:53;6.05;;;2.40;;
79454;SDS011;68900;52.134;5.420;2023-04-30T20:49:19;5.65;;;2.10;;
79454;SDS011;68900;52.134;5.420;2023-04-30T20:51:46;9.02;;;3.10;;
79454;SDS011;68900;52.134;5.420;2023-04-30T20:54:12;6.80;;;2.35;;
79454;SDS011;68900;52.134;5.420;2023-04-30T20:56:38;6.20;;;2.35;;
79454;SDS011;68900;52.134;5.420;2023-04-30T20:59:05;7.15;;;2.60;;
79454;SDS011;68900;52.134;5.420;2023-04-30T21:01:32;4.97;;;2.40;;
79454;SDS011;68900;52.134;5.420;2023-04-30T21:03:58;6.93;;;2.78;;
79454;SDS011;68900;52.134;5.420;2023-04-30T21:06:25;6.22;;;2.53;;
79454;SDS011;68900;52.134;5.420;2023-04-30T21:08:53;4.80;;;2.25;;
79454;SDS011;68900;52.134;5.420;2023-04-30T21:11:19;4.60;;;2.20;;
79454;SDS011;68900;52.134;5.420;2023-04-30T21:13:46;6.47;;;2.20;;
79454;SDS011;68900;52.134;5.420;2023-04-30T21:16:16;4.47;;;2.03;;
79454;SDS011;68900;52.134;5.420;2023-04-30T21:18:43;3.88;;;1.55;;
79454;SDS011;68900;52.134;5.420;2023-04-30T21:21:11;5.90;;;2.28;;
79454;SDS011;68900;52.134;5.420;2023-04-30T21:23:37;4.88;;;2.13;;